createdAt,value
2022-10-25T00:04:36.815Z,22.21
2022-10-25T00:09:40.809Z,22.22
2022-10-25T00:14:43.433Z,22.24
2022-10-25T00:19:47.027Z,22.24
2022-10-25T00:24:50.989Z,22.29
2022-10-25T00:29:53.788Z,22.29
2022-10-25T00:34:56.443Z,22.33
2022-10-25T00:40:00.480Z,22.37
2022-10-25T00:45:03.560Z,22.35
2022-10-25T00:50:13.836Z,22.41
2022-10-25T00:55:18.079Z,22.43
2022-10-25T01:00:20.811Z,22.50
2022-10-25T01:05:23.880Z,22.52
2022-10-25T01:10:28.019Z,22.50
2022-10-25T01:15:42.142Z,22.51
2022-10-25T01:21:11.264Z,22.51
2022-10-25T01:26:42.196Z,22.52
2022-10-25T01:31:46.729Z,22.56
2022-10-25T01:36:51.678Z,22.59
2022-10-25T01:41:58.164Z,22.59
2022-10-25T01:47:03.503Z,22.61
2022-10-25T01:52:06.335Z,22.53
2022-10-25T01:57:37.346Z,22.55
2022-10-25T02:02:47.858Z,22.53
2022-10-25T02:07:54.463Z,22.47
2022-10-25T02:12:58.061Z,22.45
2022-10-25T02:18:03.029Z,22.45
2022-10-25T02:23:06.520Z,22.44
2022-10-25T02:28:10.296Z,22.42
2022-10-25T02:33:14.331Z,22.34
2022-10-25T02:38:16.980Z,22.30
2022-10-25T02:43:19.666Z,22.28
2022-10-25T02:48:23.846Z,22.24
2022-10-25T02:53:28.630Z,22.20
2022-10-25T02:58:32.041Z,22.16
2022-10-25T03:03:36.107Z,22.15
2022-10-25T03:08:38.776Z,22.12
2022-10-25T03:13:41.421Z,22.12
2022-10-25T03:18:45.495Z,22.09
2022-10-25T03:23:48.174Z,22.09
2022-10-25T03:28:50.810Z,22.10
2022-10-25T03:33:54.759Z,22.03
2022-10-25T03:38:57.453Z,22.02
2022-10-25T03:44:00.145Z,22.00
2022-10-25T03:49:04.324Z,21.95
2022-10-25T03:54:07.021Z,21.92
2022-10-25T03:59:09.796Z,21.89
2022-10-25T04:04:13.759Z,21.85
2022-10-25T04:09:16.742Z,21.83
2022-10-25T04:14:19.415Z,21.77
2022-10-25T04:19:23.393Z,21.75
2022-10-25T04:24:26.081Z,21.66
2022-10-25T04:29:28.774Z,21.64
2022-10-25T04:34:32.770Z,21.59
2022-10-25T04:39:35.461Z,21.55
2022-10-25T04:44:38.166Z,21.55
2022-10-25T04:49:42.133Z,21.46
2022-10-25T04:54:44.810Z,21.42
2022-10-25T04:59:47.485Z,21.44
2022-10-25T05:04:51.490Z,21.37
2022-10-25T05:09:54.136Z,21.36
2022-10-25T05:14:56.809Z,21.33
2022-10-25T05:20:01.004Z,21.31
2022-10-25T05:25:03.831Z,21.29
2022-10-25T05:30:07.615Z,21.28
2022-10-25T05:35:11.688Z,21.25
2022-10-25T05:40:14.464Z,21.23
2022-10-25T05:45:17.281Z,21.21
2022-10-25T05:50:21.377Z,21.20
2022-10-25T05:55:24.150Z,21.15
2022-10-25T06:00:27.084Z,21.15
2022-10-25T06:05:31.144Z,21.10
2022-10-25T06:10:33.821Z,21.13
2022-10-25T06:15:38.112Z,21.13
2022-10-25T06:20:42.195Z,21.14
2022-10-25T06:25:44.936Z,21.13
2022-10-25T06:30:47.622Z,21.09
2022-10-25T06:35:55.675Z,21.09
2022-10-25T06:41:01.316Z,21.07
2022-10-25T06:46:06.320Z,21.07
2022-10-25T06:51:10.614Z,21.03
2022-10-25T06:56:14.889Z,21.06
2022-10-25T07:01:18.831Z,21.06
2022-10-25T07:06:26.286Z,21.15
2022-10-25T07:11:29.869Z,21.10
2022-10-25T07:16:32.528Z,21.09
2022-10-25T07:21:36.694Z,21.08
2022-10-25T07:26:40.371Z,21.10
2022-10-25T07:31:44.205Z,21.15
2022-10-25T07:36:48.286Z,21.17
2022-10-25T07:41:51.041Z,21.12
2022-10-25T07:46:55.429Z,21.15
2022-10-25T07:51:59.528Z,21.14
2022-10-25T07:57:02.249Z,21.18
2022-10-25T08:02:04.983Z,21.17
2022-10-25T08:07:09.021Z,21.15
2022-10-25T08:12:11.754Z,21.18
2022-10-25T08:17:15.615Z,21.03
2022-10-25T08:22:19.753Z,19.99
2022-10-25T08:27:22.452Z,20.42
2022-10-25T08:32:25.440Z,20.47
2022-10-25T08:37:29.480Z,20.56
2022-10-25T08:42:35.112Z,20.69
2022-10-25T08:47:38.971Z,20.78
2022-10-25T08:52:44.883Z,20.84
2022-10-25T08:57:47.926Z,20.90
2022-10-25T09:02:52.781Z,20.93
2022-10-25T09:08:04.872Z,20.99
2022-10-25T09:13:11.297Z,21.00
2022-10-25T09:18:16.407Z,21.02
2022-10-25T09:23:25.986Z,21.08
2022-10-25T09:28:35.397Z,21.04
2022-10-25T09:33:38.159Z,21.01
2022-10-25T09:38:43.559Z,20.99
2022-10-25T09:43:48.448Z,21.00
2022-10-25T09:48:53.831Z,20.99
2022-10-25T09:53:57.830Z,21.02
2022-10-25T09:59:04.323Z,21.00
2022-10-25T10:04:24.626Z,21.08
2022-10-25T10:09:29.520Z,21.10
2022-10-25T10:14:35.724Z,21.14
2022-10-25T10:19:38.455Z,21.16
2022-10-25T10:24:43.255Z,21.18
2022-10-25T10:29:53.271Z,21.18
2022-10-25T10:34:56.489Z,21.17
2022-10-25T10:40:01.594Z,21.15
2022-10-25T10:45:15.402Z,21.16
2022-10-25T10:50:24.368Z,21.19
2022-10-25T10:55:29.711Z,21.22
2022-10-25T11:00:32.823Z,21.28
2022-10-25T11:05:36.246Z,21.31
2022-10-25T11:10:40.438Z,21.33
2022-10-25T11:16:21.003Z,21.32
2022-10-25T11:21:33.773Z,21.36
2022-10-25T11:26:47.185Z,21.34
2022-10-25T11:31:54.725Z,21.33
2022-10-25T11:37:03.272Z,21.28
2022-10-25T11:42:16.570Z,21.32
2022-10-25T11:47:25.227Z,21.35
2022-10-25T11:52:56.826Z,21.38
2022-10-25T11:58:08.019Z,21.41
2022-10-25T12:03:18.471Z,21.48
2022-10-25T12:08:27.018Z,21.72
2022-10-25T12:13:32.031Z,21.82
2022-10-25T12:18:38.033Z,21.87
2022-10-25T12:23:42.881Z,21.84
2022-10-25T12:28:47.435Z,21.94
2022-10-25T12:33:52.595Z,22.06
2022-10-25T12:38:55.422Z,22.07
2022-10-25T12:44:12.036Z,22.01
2022-10-25T12:49:23.160Z,21.95
2022-10-25T12:54:45.551Z,21.95
2022-10-25T12:59:58.027Z,21.94
2022-10-25T13:05:08.654Z,21.93
2022-10-25T13:10:17.651Z,21.84
2022-10-25T13:15:21.882Z,21.84
2022-10-25T13:20:46.022Z,21.87
2022-10-25T13:26:06.365Z,21.74
2022-10-25T13:31:38.689Z,21.81
2022-10-25T13:36:48.015Z,21.91
2022-10-25T13:41:50.749Z,21.82
2022-10-25T13:46:54.995Z,21.77
2022-10-25T13:51:58.559Z,21.67
2022-10-25T13:57:01.243Z,21.67
2022-10-25T14:02:17.169Z,21.67
2022-10-25T14:07:47.780Z,21.63
2022-10-25T14:12:50.694Z,21.66
2022-10-25T14:17:54.929Z,21.63
2022-10-25T14:23:00.264Z,21.61
2022-10-25T14:28:14.042Z,21.64
2022-10-25T14:33:41.872Z,21.60
2022-10-25T14:38:51.877Z,21.63
2022-10-25T14:43:56.006Z,21.64
2022-10-25T14:49:01.353Z,21.73
2022-10-25T14:54:05.238Z,21.69
2022-10-25T14:59:09.234Z,21.65
2022-10-25T15:04:13.904Z,21.63
2022-10-25T15:09:41.715Z,21.56
2022-10-25T15:14:41.702Z,21.53
2022-10-25T15:20:02.886Z,21.63
2022-10-25T15:25:17.661Z,21.72
2022-10-25T15:30:36.331Z,21.58
2022-10-25T15:35:47.148Z,21.56
2022-10-25T15:40:50.091Z,21.54
2022-10-25T15:45:52.951Z,21.59
2022-10-25T15:50:57.790Z,21.55
2022-10-25T15:56:00.457Z,21.42
2022-10-25T16:01:03.200Z,21.41
2022-10-25T16:06:07.909Z,21.33
2022-10-25T16:11:13.264Z,21.32
2022-10-25T16:16:38.948Z,21.22
2022-10-25T16:21:42.423Z,21.31
2022-10-25T16:26:45.918Z,21.34
2022-10-25T16:31:48.668Z,21.38
2022-10-25T16:36:53.838Z,21.44
2022-10-25T16:41:58.323Z,21.47
2022-10-25T16:47:01.058Z,21.44
2022-10-25T16:52:06.085Z,21.49
2022-10-25T16:57:08.824Z,21.49
2022-10-25T17:02:16.488Z,21.49
2022-10-25T17:07:20.835Z,21.49
2022-10-25T17:12:23.618Z,21.48
2022-10-25T17:17:26.468Z,21.46
2022-10-25T17:22:30.627Z,21.44
2022-10-25T17:27:35.151Z,21.38
2022-10-25T17:32:37.931Z,21.39
2022-10-25T17:37:43.934Z,21.35
2022-10-25T17:42:46.919Z,21.30
2022-10-25T17:47:50.022Z,21.31
2022-10-25T17:52:54.537Z,21.40
2022-10-25T17:57:57.253Z,21.54
2022-10-25T18:03:00.165Z,21.62
2022-10-25T18:08:04.208Z,21.66
2022-10-25T18:13:06.934Z,21.70
2022-10-25T18:18:09.801Z,21.74
2022-10-25T18:23:14.007Z,21.77
2022-10-25T18:28:16.696Z,21.85
2022-10-25T18:33:23.717Z,21.90
2022-10-25T18:38:28.333Z,21.94
2022-10-25T18:43:31.066Z,21.99
2022-10-25T18:48:33.950Z,22.02
2022-10-25T18:53:39.323Z,22.04
2022-10-25T18:58:42.022Z,22.05
2022-10-25T19:03:44.986Z,22.11
2022-10-25T19:08:49.367Z,22.17
2022-10-25T19:13:53.936Z,22.21
2022-10-25T19:18:56.838Z,22.27
2022-10-25T19:24:00.828Z,22.28
2022-10-25T19:29:03.486Z,22.31
2022-10-25T19:34:06.254Z,22.34
2022-10-25T19:39:10.622Z,22.37
2022-10-25T19:44:13.401Z,22.37
2022-10-25T19:49:16.688Z,22.39
2022-10-25T19:54:20.669Z,22.40
2022-10-25T19:59:23.341Z,22.45
2022-10-25T20:04:54.478Z,22.45
2022-10-25T20:09:58.545Z,22.45
2022-10-25T20:15:01.263Z,22.49
2022-10-25T20:20:04.308Z,22.52
2022-10-25T20:25:08.758Z,22.53
2022-10-25T20:30:11.739Z,22.54
2022-10-25T20:35:14.676Z,22.49
2022-10-25T20:40:20.666Z,22.52
2022-10-25T20:45:23.323Z,22.55
2022-10-25T20:50:26.790Z,22.47
2022-10-25T20:55:31.092Z,22.49
2022-10-25T21:00:33.768Z,22.53
2022-10-25T21:05:36.974Z,22.53
2022-10-25T21:10:41.200Z,22.55
2022-10-25T21:15:46.521Z,22.57
2022-10-25T21:20:49.638Z,22.53
2022-10-25T21:25:59.583Z,22.55
2022-10-25T21:31:02.873Z,22.53
2022-10-25T21:36:06.777Z,22.56
2022-10-25T21:41:11.707Z,22.55
2022-10-25T21:46:15.230Z,22.57
2022-10-25T21:51:18.086Z,22.58
2022-10-25T21:56:23.406Z,22.58
2022-10-25T22:01:27.232Z,22.57
2022-10-25T22:06:30.332Z,22.57
2022-10-25T22:11:35.998Z,22.59
2022-10-25T22:16:38.786Z,22.59
2022-10-25T22:21:41.497Z,22.60
2022-10-25T22:26:45.995Z,22.58
2022-10-25T22:31:48.679Z,22.58
2022-10-25T22:36:51.338Z,22.57
2022-10-25T22:41:55.780Z,22.59
2022-10-25T22:46:58.415Z,22.59
2022-10-25T22:52:01.163Z,22.63
2022-10-25T22:57:05.455Z,22.58
2022-10-25T23:02:08.082Z,22.62
2022-10-25T23:07:10.740Z,22.61
2022-10-25T23:12:14.770Z,22.58
2022-10-25T23:17:17.442Z,22.62
2022-10-25T23:22:20.179Z,22.61
2022-10-25T23:27:24.165Z,22.59
2022-10-25T23:32:26.888Z,22.60
2022-10-25T23:37:29.552Z,22.62
2022-10-25T23:42:33.595Z,22.62
2022-10-25T23:47:36.278Z,22.63
2022-10-25T23:52:39.156Z,22.60
2022-10-25T23:57:43.565Z,22.61
